X  Close Metar Aviation Weather Data     KCRE Grand Strand
Temperature
75°F Temperature
73°F Dewpoint
94% Humidity



Wind
9 MPH
14 KM/H
4 M/S
8 KTS



190°
South
Current Conditions

Mostly Cloudy Mostly Cloudy
Pressure 1015.62 (hPa) - 29.99 (inHg)
Visibility 10 (mile) - 16.1 (km)
Airport
Airport-code KCRE

Location: Grand Strand
Distance: 6 (mi)

Metar:
KCRE 051053Z 19008KT 10SM BKN018 24/23 A2999 RMK AO1 SLP157 T02440228

Time: 05-06-2020 6:53 am EDT